sensor_id;sensor_type;location;lat;lon;timestamp;temperature;humidity
21895;DHT22;11112;51.270;7.224;2022-10-16T00:01:10;15.10;99.90
21895;DHT22;11112;51.270;7.224;2022-10-16T00:03:39;15.00;99.90
21895;DHT22;11112;51.270;7.224;2022-10-16T00:06:09;15.00;99.90
21895;DHT22;11112;51.270;7.224;2022-10-16T00:08:38;15.00;99.90
21895;DHT22;11112;51.270;7.224;2022-10-16T00:11:07;15.00;99.90
21895;DHT22;11112;51.270;7.224;2022-10-16T00:13:38;15.00;99.90
21895;DHT22;11112;51.270;7.224;2022-10-16T00:16:07;15.00;99.90
21895;DHT22;11112;51.270;7.224;2022-10-16T00:18:36;15.10;99.90
21895;DHT22;11112;51.270;7.224;2022-10-16T00:21:05;15.10;99.90
21895;DHT22;11112;51.270;7.224;2022-10-16T00:23:35;15.10;99.90
21895;DHT22;11112;51.270;7.224;2022-10-16T00:26:04;15.10;99.90
21895;DHT22;11112;51.270;7.224;2022-10-16T00:28:34;15.10;99.90
21895;DHT22;11112;51.270;7.224;2022-10-16T00:31:03;15.00;99.90
21895;DHT22;11112;51.270;7.224;2022-10-16T00:33:31;15.00;99.90
21895;DHT22;11112;51.270;7.224;2022-10-16T00:35:58;15.00;99.90
21895;DHT22;11112;51.270;7.224;2022-10-16T00:38:26;15.00;99.90
21895;DHT22;11112;51.270;7.224;2022-10-16T00:40:55;15.00;99.90
21895;DHT22;11112;51.270;7.224;2022-10-16T00:43:40;15.10;99.90
21895;DHT22;11112;51.270;7.224;2022-10-16T00:46:15;15.00;99.90
21895;DHT22;11112;51.270;7.224;2022-10-16T00:48:47;15.00;99.90
21895;DHT22;11112;51.270;7.224;2022-10-16T00:51:20;15.10;99.90
21895;DHT22;11112;51.270;7.224;2022-10-16T00:53:50;15.10;99.90
21895;DHT22;11112;51.270;7.224;2022-10-16T00:56:21;15.10;99.90
21895;DHT22;11112;51.270;7.224;2022-10-16T00:58:48;15.10;99.90
21895;DHT22;11112;51.270;7.224;2022-10-16T01:01:15;15.10;99.90
21895;DHT22;11112;51.270;7.224;2022-10-16T01:03:42;15.10;99.90
21895;DHT22;11112;51.270;7.224;2022-10-16T01:06:21;15.10;99.90
21895;DHT22;11112;51.270;7.224;2022-10-16T01:09:01;15.10;99.90
21895;DHT22;11112;51.270;7.224;2022-10-16T01:11:44;15.10;99.90
21895;DHT22;11112;51.270;7.224;2022-10-16T01:14:22;15.10;99.90
21895;DHT22;11112;51.270;7.224;2022-10-16T01:16:55;15.10;99.90
21895;DHT22;11112;51.270;7.224;2022-10-16T01:22:26;15.10;99.90
21895;DHT22;11112;51.270;7.224;2022-10-16T01:25:01;15.00;99.90
21895;DHT22;11112;51.270;7.224;2022-10-16T01:27:35;15.00;99.90
21895;DHT22;11112;51.270;7.224;2022-10-16T01:30:09;15.00;99.90
21895;DHT22;11112;51.270;7.224;2022-10-16T01:32:42;15.00;99.90
21895;DHT22;11112;51.270;7.224;2022-10-16T01:35:17;15.00;99.90
21895;DHT22;11112;51.270;7.224;2022-10-16T01:37:50;15.00;99.90
21895;DHT22;11112;51.270;7.224;2022-10-16T01:40:23;15.00;99.90
21895;DHT22;11112;51.270;7.224;2022-10-16T01:42:56;15.00;99.90
21895;DHT22;11112;51.270;7.224;2022-10-16T01:45:28;15.00;99.90
21895;DHT22;11112;51.270;7.224;2022-10-16T01:47:59;15.00;99.90
21895;DHT22;11112;51.270;7.224;2022-10-16T01:50:30;15.00;99.90
21895;DHT22;11112;51.270;7.224;2022-10-16T01:52:58;15.00;99.90
21895;DHT22;11112;51.270;7.224;2022-10-16T01:55:29;15.00;99.90
21895;DHT22;11112;51.270;7.224;2022-10-16T01:58:02;15.00;99.90
21895;DHT22;11112;51.270;7.224;2022-10-16T02:00:32;14.90;99.90
21895;DHT22;11112;51.270;7.224;2022-10-16T02:03:01;14.90;99.90
21895;DHT22;11112;51.270;7.224;2022-10-16T02:05:34;14.90;99.90
21895;DHT22;11112;51.270;7.224;2022-10-16T02:08:05;14.90;99.90
21895;DHT22;11112;51.270;7.224;2022-10-16T02:10:35;14.90;99.90
21895;DHT22;11112;51.270;7.224;2022-10-16T02:13:06;15.00;99.90
21895;DHT22;11112;51.270;7.224;2022-10-16T02:15:36;14.90;99.90
21895;DHT22;11112;51.270;7.224;2022-10-16T02:18:04;14.90;99.90
21895;DHT22;11112;51.270;7.224;2022-10-16T02:20:36;14.90;99.90
21895;DHT22;11112;51.270;7.224;2022-10-16T02:23:12;14.90;99.90
21895;DHT22;11112;51.270;7.224;2022-10-16T02:25:48;14.90;99.90
21895;DHT22;11112;51.270;7.224;2022-10-16T02:28:22;14.90;99.90
21895;DHT22;11112;51.270;7.224;2022-10-16T02:30:55;14.80;99.90
21895;DHT22;11112;51.270;7.224;2022-10-16T02:33:25;14.80;99.90
21895;DHT22;11112;51.270;7.224;2022-10-16T02:35:54;14.80;99.90
21895;DHT22;11112;51.270;7.224;2022-10-16T02:38:25;14.80;99.90
21895;DHT22;11112;51.270;7.224;2022-10-16T02:40:53;14.90;99.90
21895;DHT22;11112;51.270;7.224;2022-10-16T02:43:22;14.80;99.90
21895;DHT22;11112;51.270;7.224;2022-10-16T02:45:51;14.80;99.90
21895;DHT22;11112;51.270;7.224;2022-10-16T02:48:18;14.90;99.90
21895;DHT22;11112;51.270;7.224;2022-10-16T02:50:46;14.80;99.90
21895;DHT22;11112;51.270;7.224;2022-10-16T02:53:13;14.90;99.90
21895;DHT22;11112;51.270;7.224;2022-10-16T02:55:40;14.80;99.90
21895;DHT22;11112;51.270;7.224;2022-10-16T02:58:07;14.80;99.90
21895;DHT22;11112;51.270;7.224;2022-10-16T03:00:36;14.90;99.90
21895;DHT22;11112;51.270;7.224;2022-10-16T03:03:03;14.90;99.90
21895;DHT22;11112;51.270;7.224;2022-10-16T03:05:30;14.90;99.90
21895;DHT22;11112;51.270;7.224;2022-10-16T03:07:57;14.90;99.90
21895;DHT22;11112;51.270;7.224;2022-10-16T03:10:25;14.90;99.90
21895;DHT22;11112;51.270;7.224;2022-10-16T03:12:53;14.90;99.90
21895;DHT22;11112;51.270;7.224;2022-10-16T03:15:20;14.90;99.90
21895;DHT22;11112;51.270;7.224;2022-10-16T03:17:54;14.90;99.90
21895;DHT22;11112;51.270;7.224;2022-10-16T03:20:21;14.90;99.90
21895;DHT22;11112;51.270;7.224;2022-10-16T03:22:48;14.90;99.90
21895;DHT22;11112;51.270;7.224;2022-10-16T03:25:16;14.90;99.90
21895;DHT22;11112;51.270;7.224;2022-10-16T03:27:43;14.90;99.90
21895;DHT22;11112;51.270;7.224;2022-10-16T03:30:11;14.90;99.90
21895;DHT22;11112;51.270;7.224;2022-10-16T03:32:38;14.90;99.90
21895;DHT22;11112;51.270;7.224;2022-10-16T03:35:08;14.90;99.90
21895;DHT22;11112;51.270;7.224;2022-10-16T03:37:35;14.90;99.90
21895;DHT22;11112;51.270;7.224;2022-10-16T03:40:03;14.90;99.90
21895;DHT22;11112;51.270;7.224;2022-10-16T03:42:31;14.90;99.90
21895;DHT22;11112;51.270;7.224;2022-10-16T03:44:58;14.90;99.90
21895;DHT22;11112;51.270;7.224;2022-10-16T03:47:25;14.90;99.90
21895;DHT22;11112;51.270;7.224;2022-10-16T03:49:52;14.90;99.90
21895;DHT22;11112;51.270;7.224;2022-10-16T03:52:21;14.90;99.90
21895;DHT22;11112;51.270;7.224;2022-10-16T03:54:48;14.90;99.90
21895;DHT22;11112;51.270;7.224;2022-10-16T03:57:15;14.80;99.90
21895;DHT22;11112;51.270;7.224;2022-10-16T03:59:42;14.90;99.90
21895;DHT22;11112;51.270;7.224;2022-10-16T04:02:10;14.80;99.90
21895;DHT22;11112;51.270;7.224;2022-10-16T04:04:37;14.90;99.90
21895;DHT22;11112;51.270;7.224;2022-10-16T04:07:04;14.80;99.90
21895;DHT22;11112;51.270;7.224;2022-10-16T04:09:34;14.90;99.90
21895;DHT22;11112;51.270;7.224;2022-10-16T04:12:01;14.90;99.90
21895;DHT22;11112;51.270;7.224;2022-10-16T04:14:28;14.90;99.90
21895;DHT22;11112;51.270;7.224;2022-10-16T04:16:55;14.90;99.90
21895;DHT22;11112;51.270;7.224;2022-10-16T04:19:22;14.80;99.90
21895;DHT22;11112;51.270;7.224;2022-10-16T04:21:49;14.80;99.90
21895;DHT22;11112;51.270;7.224;2022-10-16T04:24:16;14.80;99.90
21895;DHT22;11112;51.270;7.224;2022-10-16T04:26:45;14.80;99.90
21895;DHT22;11112;51.270;7.224;2022-10-16T04:29:12;14.80;99.90
21895;DHT22;11112;51.270;7.224;2022-10-16T04:31:39;14.80;99.90
21895;DHT22;11112;51.270;7.224;2022-10-16T04:34:06;14.80;99.90
21895;DHT22;11112;51.270;7.224;2022-10-16T04:36:33;14.80;99.90
21895;DHT22;11112;51.270;7.224;2022-10-16T04:39:00;14.80;99.90
21895;DHT22;11112;51.270;7.224;2022-10-16T04:41:28;14.80;99.90
21895;DHT22;11112;51.270;7.224;2022-10-16T04:43:56;14.80;99.90
21895;DHT22;11112;51.270;7.224;2022-10-16T04:46:23;14.80;99.90
21895;DHT22;11112;51.270;7.224;2022-10-16T04:48:51;14.80;99.90
21895;DHT22;11112;51.270;7.224;2022-10-16T04:51:19;14.80;99.90
21895;DHT22;11112;51.270;7.224;2022-10-16T04:53:46;14.80;99.90
21895;DHT22;11112;51.270;7.224;2022-10-16T04:56:13;14.80;99.90
21895;DHT22;11112;51.270;7.224;2022-10-16T04:58:41;14.80;99.90
21895;DHT22;11112;51.270;7.224;2022-10-16T05:01:09;14.80;99.90
21895;DHT22;11112;51.270;7.224;2022-10-16T05:03:36;14.80;99.90
21895;DHT22;11112;51.270;7.224;2022-10-16T05:06:05;14.80;99.90
21895;DHT22;11112;51.270;7.224;2022-10-16T05:08:33;14.80;99.90
21895;DHT22;11112;51.270;7.224;2022-10-16T05:11:00;14.80;99.90
21895;DHT22;11112;51.270;7.224;2022-10-16T05:13:27;14.80;99.90
21895;DHT22;11112;51.270;7.224;2022-10-16T05:15:55;14.80;99.90
21895;DHT22;11112;51.270;7.224;2022-10-16T05:18:24;14.80;99.90
21895;DHT22;11112;51.270;7.224;2022-10-16T05:20:51;14.80;99.90
21895;DHT22;11112;51.270;7.224;2022-10-16T05:23:18;14.80;99.90
21895;DHT22;11112;51.270;7.224;2022-10-16T05:25:52;14.70;99.90
21895;DHT22;11112;51.270;7.224;2022-10-16T05:28:20;14.70;99.90
21895;DHT22;11112;51.270;7.224;2022-10-16T05:30:48;14.70;99.90
21895;DHT22;11112;51.270;7.224;2022-10-16T05:33:15;14.80;99.90
21895;DHT22;11112;51.270;7.224;2022-10-16T05:35:43;14.70;99.90
21895;DHT22;11112;51.270;7.224;2022-10-16T05:38:10;14.70;99.90
21895;DHT22;11112;51.270;7.224;2022-10-16T05:40:38;14.70;99.90
21895;DHT22;11112;51.270;7.224;2022-10-16T05:43:05;14.70;99.90
21895;DHT22;11112;51.270;7.224;2022-10-16T05:45:32;14.70;99.90
21895;DHT22;11112;51.270;7.224;2022-10-16T05:48:00;14.70;99.90
21895;DHT22;11112;51.270;7.224;2022-10-16T05:50:28;14.70;99.90
21895;DHT22;11112;51.270;7.224;2022-10-16T05:52:56;14.70;99.90
21895;DHT22;11112;51.270;7.224;2022-10-16T05:55:24;14.70;99.90
21895;DHT22;11112;51.270;7.224;2022-10-16T05:57:54;14.70;99.90
21895;DHT22;11112;51.270;7.224;2022-10-16T06:00:21;14.80;99.90
21895;DHT22;11112;51.270;7.224;2022-10-16T06:02:48;14.70;99.90
21895;DHT22;11112;51.270;7.224;2022-10-16T06:05:15;14.70;99.90
21895;DHT22;11112;51.270;7.224;2022-10-16T06:07:42;14.70;99.90
21895;DHT22;11112;51.270;7.224;2022-10-16T06:10:11;14.70;99.90
21895;DHT22;11112;51.270;7.224;2022-10-16T06:12:38;14.70;99.90
21895;DHT22;11112;51.270;7.224;2022-10-16T06:15:06;14.70;99.90
21895;DHT22;11112;51.270;7.224;2022-10-16T06:17:33;14.70;99.90
21895;DHT22;11112;51.270;7.224;2022-10-16T06:20:00;14.70;99.90
21895;DHT22;11112;51.270;7.224;2022-10-16T06:22:27;14.70;99.90
21895;DHT22;11112;51.270;7.224;2022-10-16T06:24:54;14.70;99.90
21895;DHT22;11112;51.270;7.224;2022-10-16T06:27:23;14.70;99.90
21895;DHT22;11112;51.270;7.224;2022-10-16T06:29:51;14.80;99.90
21895;DHT22;11112;51.270;7.224;2022-10-16T06:32:18;14.80;99.90
21895;DHT22;11112;51.270;7.224;2022-10-16T06:34:45;14.80;99.90
21895;DHT22;11112;51.270;7.224;2022-10-16T06:37:12;14.80;99.90
21895;DHT22;11112;51.270;7.224;2022-10-16T06:39:40;14.80;99.90
21895;DHT22;11112;51.270;7.224;2022-10-16T06:42:07;14.80;99.90
21895;DHT22;11112;51.270;7.224;2022-10-16T06:44:35;14.80;99.90
21895;DHT22;11112;51.270;7.224;2022-10-16T06:47:03;14.80;99.90
21895;DHT22;11112;51.270;7.224;2022-10-16T06:49:30;14.80;99.90
21895;DHT22;11112;51.270;7.224;2022-10-16T06:51:57;14.80;99.90
21895;DHT22;11112;51.270;7.224;2022-10-16T06:54:25;14.90;99.90
21895;DHT22;11112;51.270;7.224;2022-10-16T06:56:52;14.90;99.90
21895;DHT22;11112;51.270;7.224;2022-10-16T06:59:20;14.90;99.90
21895;DHT22;11112;51.270;7.224;2022-10-16T07:01:48;14.90;99.90
21895;DHT22;11112;51.270;7.224;2022-10-16T07:04:16;14.90;99.90
21895;DHT22;11112;51.270;7.224;2022-10-16T07:06:43;14.90;99.90
21895;DHT22;11112;51.270;7.224;2022-10-16T07:09:10;15.00;99.90
21895;DHT22;11112;51.270;7.224;2022-10-16T07:11:39;15.00;99.90
21895;DHT22;11112;51.270;7.224;2022-10-16T07:14:15;15.00;99.90
21895;DHT22;11112;51.270;7.224;2022-10-16T07:16:43;15.00;99.90
21895;DHT22;11112;51.270;7.224;2022-10-16T07:19:11;15.00;99.90
21895;DHT22;11112;51.270;7.224;2022-10-16T07:21:40;15.00;99.90
21895;DHT22;11112;51.270;7.224;2022-10-16T07:24:12;15.00;99.90
21895;DHT22;11112;51.270;7.224;2022-10-16T07:26:44;15.00;99.90
21895;DHT22;11112;51.270;7.224;2022-10-16T07:29:13;15.00;99.90
21895;DHT22;11112;51.270;7.224;2022-10-16T07:31:41;15.00;99.90
21895;DHT22;11112;51.270;7.224;2022-10-16T07:34:12;15.00;99.90
21895;DHT22;11112;51.270;7.224;2022-10-16T07:36:40;15.10;99.90
21895;DHT22;11112;51.270;7.224;2022-10-16T07:39:11;15.10;99.90
21895;DHT22;11112;51.270;7.224;2022-10-16T07:41:41;15.00;99.90
21895;DHT22;11112;51.270;7.224;2022-10-16T07:44:08;15.10;99.90
21895;DHT22;11112;51.270;7.224;2022-10-16T07:46:36;15.10;99.90
21895;DHT22;11112;51.270;7.224;2022-10-16T07:49:03;15.10;99.90
21895;DHT22;11112;51.270;7.224;2022-10-16T07:51:32;15.10;99.90
21895;DHT22;11112;51.270;7.224;2022-10-16T07:53:59;15.10;99.90
21895;DHT22;11112;51.270;7.224;2022-10-16T07:56:27;15.10;99.90
21895;DHT22;11112;51.270;7.224;2022-10-16T07:58:54;15.10;99.90
21895;DHT22;11112;51.270;7.224;2022-10-16T08:01:22;15.10;99.90
21895;DHT22;11112;51.270;7.224;2022-10-16T08:03:52;15.10;99.90
21895;DHT22;11112;51.270;7.224;2022-10-16T08:06:21;15.10;99.90
21895;DHT22;11112;51.270;7.224;2022-10-16T08:08:50;15.10;99.90
21895;DHT22;11112;51.270;7.224;2022-10-16T08:11:18;15.10;99.90
21895;DHT22;11112;51.270;7.224;2022-10-16T08:13:45;15.10;99.90
21895;DHT22;11112;51.270;7.224;2022-10-16T08:16:12;15.10;99.90
21895;DHT22;11112;51.270;7.224;2022-10-16T08:18:40;15.10;99.90
21895;DHT22;11112;51.270;7.224;2022-10-16T08:21:12;15.10;99.90
21895;DHT22;11112;51.270;7.224;2022-10-16T08:23:44;15.10;99.90
21895;DHT22;11112;51.270;7.224;2022-10-16T08:26:13;15.10;99.90
21895;DHT22;11112;51.270;7.224;2022-10-16T08:28:43;15.20;99.90
21895;DHT22;11112;51.270;7.224;2022-10-16T08:31:12;15.20;99.90
21895;DHT22;11112;51.270;7.224;2022-10-16T08:33:41;15.20;99.90
21895;DHT22;11112;51.270;7.224;2022-10-16T08:36:11;15.30;99.90
21895;DHT22;11112;51.270;7.224;2022-10-16T08:38:38;15.30;99.90
21895;DHT22;11112;51.270;7.224;2022-10-16T08:41:32;15.40;99.90
21895;DHT22;11112;51.270;7.224;2022-10-16T08:44:30;15.50;99.90
21895;DHT22;11112;51.270;7.224;2022-10-16T08:47:11;15.50;99.90
21895;DHT22;11112;51.270;7.224;2022-10-16T08:49:42;15.60;99.90
21895;DHT22;11112;51.270;7.224;2022-10-16T08:52:12;15.60;99.90
21895;DHT22;11112;51.270;7.224;2022-10-16T08:54:43;15.70;99.90
21895;DHT22;11112;51.270;7.224;2022-10-16T08:57:19;15.70;99.90
21895;DHT22;11112;51.270;7.224;2022-10-16T08:59:47;15.80;99.90
21895;DHT22;11112;51.270;7.224;2022-10-16T09:02:24;15.80;99.90
21895;DHT22;11112;51.270;7.224;2022-10-16T09:05:10;15.80;99.90
21895;DHT22;11112;51.270;7.224;2022-10-16T09:07:55;15.90;99.90
21895;DHT22;11112;51.270;7.224;2022-10-16T09:10:37;15.90;99.80
21895;DHT22;11112;51.270;7.224;2022-10-16T09:13:19;15.90;99.60
21895;DHT22;11112;51.270;7.224;2022-10-16T09:15:55;16.00;99.30
21895;DHT22;11112;51.270;7.224;2022-10-16T09:18:35;16.00;99.20
21895;DHT22;11112;51.270;7.224;2022-10-16T09:21:11;16.00;98.80
21895;DHT22;11112;51.270;7.224;2022-10-16T09:23:43;16.00;98.90
21895;DHT22;11112;51.270;7.224;2022-10-16T09:26:12;16.10;98.90
21895;DHT22;11112;51.270;7.224;2022-10-16T09:28:42;16.10;99.00
21895;DHT22;11112;51.270;7.224;2022-10-16T09:31:15;16.10;99.10
21895;DHT22;11112;51.270;7.224;2022-10-16T09:33:48;16.20;99.00
21895;DHT22;11112;51.270;7.224;2022-10-16T09:36:21;16.20;99.10
21895;DHT22;11112;51.270;7.224;2022-10-16T09:38:49;16.20;99.10
21895;DHT22;11112;51.270;7.224;2022-10-16T09:41:20;16.20;98.90
21895;DHT22;11112;51.270;7.224;2022-10-16T09:43:54;16.20;98.90
21895;DHT22;11112;51.270;7.224;2022-10-16T09:46:28;16.20;98.60
21895;DHT22;11112;51.270;7.224;2022-10-16T09:48:57;16.20;98.60
21895;DHT22;11112;51.270;7.224;2022-10-16T09:51:28;16.20;98.40
21895;DHT22;11112;51.270;7.224;2022-10-16T09:53:58;16.30;98.10
21895;DHT22;11112;51.270;7.224;2022-10-16T09:56:28;16.30;98.40
21895;DHT22;11112;51.270;7.224;2022-10-16T09:59:01;16.30;98.30
21895;DHT22;11112;51.270;7.224;2022-10-16T10:01:35;16.30;98.30
21895;DHT22;11112;51.270;7.224;2022-10-16T10:04:04;16.30;97.70
21895;DHT22;11112;51.270;7.224;2022-10-16T10:06:34;16.30;98.00
21895;DHT22;11112;51.270;7.224;2022-10-16T10:09:16;16.30;97.70
21895;DHT22;11112;51.270;7.224;2022-10-16T10:11:51;16.40;97.30
21895;DHT22;11112;51.270;7.224;2022-10-16T10:14:27;16.40;97.40
21895;DHT22;11112;51.270;7.224;2022-10-16T10:17:13;16.40;96.90
21895;DHT22;11112;51.270;7.224;2022-10-16T10:19:46;16.40;97.00
21895;DHT22;11112;51.270;7.224;2022-10-16T10:22:40;16.40;96.90
21895;DHT22;11112;51.270;7.224;2022-10-16T10:25:18;16.50;97.10
21895;DHT22;11112;51.270;7.224;2022-10-16T10:28:10;16.50;97.10
21895;DHT22;11112;51.270;7.224;2022-10-16T10:30:53;16.50;97.10
21895;DHT22;11112;51.270;7.224;2022-10-16T10:33:30;16.50;96.90
21895;DHT22;11112;51.270;7.224;2022-10-16T10:36:14;16.50;96.90
21895;DHT22;11112;51.270;7.224;2022-10-16T10:38:50;16.50;96.70
21895;DHT22;11112;51.270;7.224;2022-10-16T10:41:31;16.50;96.40
21895;DHT22;11112;51.270;7.224;2022-10-16T10:44:13;16.50;96.40
21895;DHT22;11112;51.270;7.224;2022-10-16T10:46:50;16.50;96.40
21895;DHT22;11112;51.270;7.224;2022-10-16T10:49:44;16.50;96.70
21895;DHT22;11112;51.270;7.224;2022-10-16T10:52:46;16.60;96.20
21895;DHT22;11112;51.270;7.224;2022-10-16T10:55:25;16.60;96.10
21895;DHT22;11112;51.270;7.224;2022-10-16T10:58:20;16.60;96.40
21895;DHT22;11112;51.270;7.224;2022-10-16T11:01:08;16.70;96.00
21895;DHT22;11112;51.270;7.224;2022-10-16T11:03:42;16.60;96.10
21895;DHT22;11112;51.270;7.224;2022-10-16T11:06:23;16.60;96.10
21895;DHT22;11112;51.270;7.224;2022-10-16T11:08:55;16.70;96.10
21895;DHT22;11112;51.270;7.224;2022-10-16T11:11:31;16.60;96.00
21895;DHT22;11112;51.270;7.224;2022-10-16T11:14:06;16.70;96.00
21895;DHT22;11112;51.270;7.224;2022-10-16T11:16:43;16.70;96.10
21895;DHT22;11112;51.270;7.224;2022-10-16T11:19:22;16.70;96.20
21895;DHT22;11112;51.270;7.224;2022-10-16T11:22:01;16.80;96.20
21895;DHT22;11112;51.270;7.224;2022-10-16T11:24:37;16.80;96.30
21895;DHT22;11112;51.270;7.224;2022-10-16T11:27:14;16.80;95.60
21895;DHT22;11112;51.270;7.224;2022-10-16T11:29:47;16.80;95.30
21895;DHT22;11112;51.270;7.224;2022-10-16T11:32:22;16.80;95.60
21895;DHT22;11112;51.270;7.224;2022-10-16T11:34:57;16.90;95.40
21895;DHT22;11112;51.270;7.224;2022-10-16T11:37:30;16.90;95.50
21895;DHT22;11112;51.270;7.224;2022-10-16T11:40:09;16.90;95.40
21895;DHT22;11112;51.270;7.224;2022-10-16T11:42:50;16.90;95.20
21895;DHT22;11112;51.270;7.224;2022-10-16T11:45:26;16.90;95.20
21895;DHT22;11112;51.270;7.224;2022-10-16T11:48:02;16.90;94.40
21895;DHT22;11112;51.270;7.224;2022-10-16T11:50:37;16.90;94.40
21895;DHT22;11112;51.270;7.224;2022-10-16T11:53:13;16.90;94.50
21895;DHT22;11112;51.270;7.224;2022-10-16T11:55:44;16.90;94.40
21895;DHT22;11112;51.270;7.224;2022-10-16T11:58:19;16.90;94.40
21895;DHT22;11112;51.270;7.224;2022-10-16T12:00:55;16.90;94.40
21895;DHT22;11112;51.270;7.224;2022-10-16T12:03:29;16.90;94.60
21895;DHT22;11112;51.270;7.224;2022-10-16T12:06:12;16.90;94.70
21895;DHT22;11112;51.270;7.224;2022-10-16T12:08:46;17.00;94.70
21895;DHT22;11112;51.270;7.224;2022-10-16T12:11:24;17.00;94.30
21895;DHT22;11112;51.270;7.224;2022-10-16T12:14:33;16.90;93.90
21895;DHT22;11112;51.270;7.224;2022-10-16T12:17:04;16.90;94.10
21895;DHT22;11112;51.270;7.224;2022-10-16T12:19:58;16.90;94.80
21895;DHT22;11112;51.270;7.224;2022-10-16T12:22:29;16.90;94.90
21895;DHT22;11112;51.270;7.224;2022-10-16T12:25:00;16.90;94.80
21895;DHT22;11112;51.270;7.224;2022-10-16T12:27:29;16.90;94.80
21895;DHT22;11112;51.270;7.224;2022-10-16T12:29:58;17.00;95.00
21895;DHT22;11112;51.270;7.224;2022-10-16T12:32:30;17.00;95.10
21895;DHT22;11112;51.270;7.224;2022-10-16T12:34:59;17.00;95.10
21895;DHT22;11112;51.270;7.224;2022-10-16T12:37:31;17.00;94.90
21895;DHT22;11112;51.270;7.224;2022-10-16T12:40:11;17.00;94.60
21895;DHT22;11112;51.270;7.224;2022-10-16T12:42:39;17.00;94.70
21895;DHT22;11112;51.270;7.224;2022-10-16T12:45:25;17.10;94.40
21895;DHT22;11112;51.270;7.224;2022-10-16T12:47:56;17.10;94.30
21895;DHT22;11112;51.270;7.224;2022-10-16T12:50:29;17.10;94.30
21895;DHT22;11112;51.270;7.224;2022-10-16T12:53:01;17.00;94.20
21895;DHT22;11112;51.270;7.224;2022-10-16T12:55:35;17.10;94.30
21895;DHT22;11112;51.270;7.224;2022-10-16T12:58:41;17.10;94.50
21895;DHT22;11112;51.270;7.224;2022-10-16T13:01:33;17.10;94.70
21895;DHT22;11112;51.270;7.224;2022-10-16T13:04:27;17.10;94.50
21895;DHT22;11112;51.270;7.224;2022-10-16T13:07:27;17.20;94.60
21895;DHT22;11112;51.270;7.224;2022-10-16T13:10:09;17.10;94.40
21895;DHT22;11112;51.270;7.224;2022-10-16T13:13:07;17.10;94.50
21895;DHT22;11112;51.270;7.224;2022-10-16T13:16:03;17.10;94.70
21895;DHT22;11112;51.270;7.224;2022-10-16T13:18:43;17.10;95.00
21895;DHT22;11112;51.270;7.224;2022-10-16T13:21:23;17.10;94.80
21895;DHT22;11112;51.270;7.224;2022-10-16T13:24:12;17.10;94.50
21895;DHT22;11112;51.270;7.224;2022-10-16T13:26:54;17.10;94.50
21895;DHT22;11112;51.270;7.224;2022-10-16T13:29:24;17.10;94.70
21895;DHT22;11112;51.270;7.224;2022-10-16T13:31:58;17.10;94.70
21895;DHT22;11112;51.270;7.224;2022-10-16T13:34:26;17.00;94.50
21895;DHT22;11112;51.270;7.224;2022-10-16T13:36:53;17.10;94.50
21895;DHT22;11112;51.270;7.224;2022-10-16T13:39:24;17.10;95.10
21895;DHT22;11112;51.270;7.224;2022-10-16T13:42:01;17.10;95.00
21895;DHT22;11112;51.270;7.224;2022-10-16T13:44:35;17.10;95.10
21895;DHT22;11112;51.270;7.224;2022-10-16T13:47:03;17.10;95.10
21895;DHT22;11112;51.270;7.224;2022-10-16T13:49:30;17.10;95.00
21895;DHT22;11112;51.270;7.224;2022-10-16T13:51:59;17.10;94.70
21895;DHT22;11112;51.270;7.224;2022-10-16T13:54:27;17.10;94.60
21895;DHT22;11112;51.270;7.224;2022-10-16T13:56:55;17.10;94.40
21895;DHT22;11112;51.270;7.224;2022-10-16T13:59:25;17.10;94.10
21895;DHT22;11112;51.270;7.224;2022-10-16T14:01:55;17.10;94.00
21895;DHT22;11112;51.270;7.224;2022-10-16T14:04:31;17.10;93.90
21895;DHT22;11112;51.270;7.224;2022-10-16T14:06:59;17.10;94.00
21895;DHT22;11112;51.270;7.224;2022-10-16T14:09:30;17.10;94.10
21895;DHT22;11112;51.270;7.224;2022-10-16T14:12:00;17.10;93.90
21895;DHT22;11112;51.270;7.224;2022-10-16T14:14:35;17.10;94.00
21895;DHT22;11112;51.270;7.224;2022-10-16T14:17:13;17.10;93.90
21895;DHT22;11112;51.270;7.224;2022-10-16T14:19:46;17.10;94.00
21895;DHT22;11112;51.270;7.224;2022-10-16T14:22:26;17.10;93.90
21895;DHT22;11112;51.270;7.224;2022-10-16T14:24:56;17.10;94.20
21895;DHT22;11112;51.270;7.224;2022-10-16T14:27:29;17.10;94.20
21895;DHT22;11112;51.270;7.224;2022-10-16T14:30:14;17.10;94.10
21895;DHT22;11112;51.270;7.224;2022-10-16T14:32:54;17.10;94.00
21895;DHT22;11112;51.270;7.224;2022-10-16T14:35:26;17.10;94.20
21895;DHT22;11112;51.270;7.224;2022-10-16T14:37:57;17.10;93.90
21895;DHT22;11112;51.270;7.224;2022-10-16T14:40:26;17.10;93.90
21895;DHT22;11112;51.270;7.224;2022-10-16T14:42:55;17.10;94.00
21895;DHT22;11112;51.270;7.224;2022-10-16T14:45:27;17.10;94.00
21895;DHT22;11112;51.270;7.224;2022-10-16T14:47:57;17.20;94.10
21895;DHT22;11112;51.270;7.224;2022-10-16T14:50:26;17.20;94.20
21895;DHT22;11112;51.270;7.224;2022-10-16T14:52:53;17.20;94.00
21895;DHT22;11112;51.270;7.224;2022-10-16T14:55:20;17.10;94.10
21895;DHT22;11112;51.270;7.224;2022-10-16T14:57:48;17.10;94.20
21895;DHT22;11112;51.270;7.224;2022-10-16T15:00:19;17.10;94.40
21895;DHT22;11112;51.270;7.224;2022-10-16T15:02:49;17.10;94.40
21895;DHT22;11112;51.270;7.224;2022-10-16T15:05:19;17.10;94.50
21895;DHT22;11112;51.270;7.224;2022-10-16T15:07:48;17.10;94.70
21895;DHT22;11112;51.270;7.224;2022-10-16T15:10:16;17.10;94.70
21895;DHT22;11112;51.270;7.224;2022-10-16T15:12:44;17.10;94.90
21895;DHT22;11112;51.270;7.224;2022-10-16T15:15:29;17.10;95.00
21895;DHT22;11112;51.270;7.224;2022-10-16T15:18:01;17.10;95.20
21895;DHT22;11112;51.270;7.224;2022-10-16T15:20:33;17.10;95.20
21895;DHT22;11112;51.270;7.224;2022-10-16T15:23:09;17.10;95.20
21895;DHT22;11112;51.270;7.224;2022-10-16T15:25:42;17.10;95.30
21895;DHT22;11112;51.270;7.224;2022-10-16T15:28:12;17.10;95.40
21895;DHT22;11112;51.270;7.224;2022-10-16T15:30:40;17.10;95.70
21895;DHT22;11112;51.270;7.224;2022-10-16T15:33:14;17.10;95.60
21895;DHT22;11112;51.270;7.224;2022-10-16T15:35:42;17.00;95.90
21895;DHT22;11112;51.270;7.224;2022-10-16T15:38:13;17.00;96.10
21895;DHT22;11112;51.270;7.224;2022-10-16T15:40:41;17.00;96.00
21895;DHT22;11112;51.270;7.224;2022-10-16T15:43:08;17.00;96.10
21895;DHT22;11112;51.270;7.224;2022-10-16T15:45:36;17.00;96.20
21895;DHT22;11112;51.270;7.224;2022-10-16T15:48:03;17.00;96.30
21895;DHT22;11112;51.270;7.224;2022-10-16T15:50:33;17.00;96.60
21895;DHT22;11112;51.270;7.224;2022-10-16T15:53:00;17.00;96.80
21895;DHT22;11112;51.270;7.224;2022-10-16T15:55:27;17.00;96.80
21895;DHT22;11112;51.270;7.224;2022-10-16T15:57:55;17.00;96.90
21895;DHT22;11112;51.270;7.224;2022-10-16T16:00:22;17.00;97.00
21895;DHT22;11112;51.270;7.224;2022-10-16T16:02:52;17.00;97.40